Wartburg, TN

4:16 AM EST on January 18, 2017 (GMT -0500)
Riverview St. | | Change Station

Elev 787 ft 35.98 °N, 84.56 °W | Updated 24 seconds ago

Overcast
Overcast
52.3 °F
Feels Like 52.3 °F
N
5.8
Wind Variable Wind from SSW

Today
High -- | Low -- °F
--% Chance of Precip.
Yesterday
High -- | Low -- °F
Precip. -- in
Pressure 30.08 in
Visibility 10.0 miles
Clouds Overcast 6000 ft
Dew Point 50 °F
Humidity 91%
Rainfall 0.00 in
Snow Depth Not available.
7:47 AM 5:50 PM
Waning Gibbous, 65% visible
METAR KOQT 180853Z AUTO VRB06KT 10SM OVC060 13/09 A3008 RMK AO2 SLP184 60000 T01330089 53001
Pressure 30.08 in
Visibility 10.0 miles
Clouds Overcast 6000 ft
Dew Point 50 °F
Humidity 91%
Rainfall 0.00 in
Snow Depth Not available.
7:47 AM 5:50 PM
Waning Gibbous, 65% visible
METAR KOQT 180853Z AUTO VRB06KT 10SM OVC060 13/09 A3008 RMK AO2 SLP184 60000 T01330089 53001

Get Your Daily Forecast Email!

Thanks for signing up!

Be on the lookout for a verification email in your inbox.

You'll start receiving the daily forecast at 8 AM.

×

10-Day Weather Forecast

Almanac

Astronomy

Jan. 18, 2017 Rise Set
Actual Time
Civil Twilight
Nautical Twilight
Astronomical Twilight
Moon
Length of Visible Light
Length of Day
Tomorrow will be .
, % of the Moon is Illuminated

Today's Extremes

State Highs State Lows

Community

WunderPhotos

Upload Photos

1,962,540 photos uploaded!

WunderBlog® & News

Nearby

Air Quality

  Air Quality AQ Index Pollutant
Not available.

Snow Depth

Station Depth Elevation

Earthquake Activity

City Distance Mag. Time & Date
Minimum magnitude displayed is 2.5.

Coastal Water Temperatures

Place Temperature

Stations

Nearby Weather Stations

Station Location Temp. Windchill Dew Point Humidity Wind Precip. Elev Updated Type
                   

Watches & Warnings

There are currently no watches in effect.